createdAt,value
2023-05-11T00:01:24.408Z,7.88
2023-05-11T00:03:56.089Z,7.48
2023-05-11T00:06:22.899Z,7.80
2023-05-11T00:08:49.265Z,7.59
2023-05-11T00:11:15.667Z,7.72
2023-05-11T00:13:41.983Z,7.69
2023-05-11T00:16:08.369Z,7.78
2023-05-11T00:18:36.167Z,7.81
2023-05-11T00:21:02.508Z,7.66
2023-05-11T00:23:28.815Z,7.67
2023-05-11T00:25:55.374Z,7.65
2023-05-11T00:28:22.864Z,7.57
2023-05-11T00:30:50.438Z,7.57
2023-05-11T00:33:16.750Z,7.81
2023-05-11T00:35:43.757Z,7.78
2023-05-11T00:38:10.074Z,7.75
2023-05-11T00:40:36.444Z,7.83
2023-05-11T00:43:02.740Z,7.64
2023-05-11T00:45:29.750Z,7.74
2023-05-11T00:47:56.383Z,7.84
2023-05-11T00:50:22.703Z,7.83
2023-05-11T00:52:49.062Z,7.88
2023-05-11T00:55:16.221Z,7.69
2023-05-11T00:57:43.254Z,7.74
2023-05-11T01:00:09.862Z,7.72
2023-05-11T01:02:37.453Z,7.59
2023-05-11T01:05:03.946Z,7.61
2023-05-11T01:07:51.757Z,7.53
2023-05-11T01:10:38.335Z,7.54
2023-05-11T01:13:10.988Z,7.50
2023-05-11T01:15:46.345Z,7.50
2023-05-11T01:18:31.435Z,7.56
2023-05-11T01:20:59.900Z,7.69
2023-05-11T01:23:49.783Z,7.66
2023-05-11T01:26:22.138Z,7.59
2023-05-11T01:28:57.485Z,7.63
2023-05-11T01:31:24.698Z,7.60
2023-05-11T01:33:55.129Z,7.70
2023-05-11T01:36:25.144Z,7.73
2023-05-11T01:38:52.116Z,7.83
2023-05-11T01:41:19.811Z,7.83
2023-05-11T01:43:49.189Z,7.88
2023-05-11T01:46:17.024Z,7.74
2023-05-11T01:48:46.691Z,7.72
2023-05-11T01:51:14.467Z,7.60
2023-05-11T01:53:41.608Z,7.57
2023-05-11T01:56:24.874Z,7.53
2023-05-11T01:58:51.382Z,7.57
2023-05-11T02:01:18.166Z,7.47
2023-05-11T02:03:46.263Z,7.40
2023-05-11T02:06:13.915Z,7.36
2023-05-11T02:08:40.613Z,7.38
2023-05-11T02:11:07.489Z,7.38
2023-05-11T02:13:36.625Z,7.47
2023-05-11T02:16:03.793Z,7.51
2023-05-11T02:18:31.311Z,7.49
2023-05-11T02:20:59.773Z,7.70
2023-05-11T02:23:27.623Z,7.44
2023-05-11T02:25:54.563Z,7.42
2023-05-11T02:28:20.961Z,7.21
2023-05-11T02:30:50.012Z,7.38
2023-05-11T02:33:31.239Z,7.22
2023-05-11T02:35:58.215Z,7.09
2023-05-11T02:38:29.213Z,7.05
2023-05-11T02:40:57.452Z,6.89
2023-05-11T02:43:30.681Z,7.15
2023-05-11T02:45:59.689Z,7.06
2023-05-11T02:48:30.587Z,7.12
2023-05-11T02:51:15.944Z,7.13
2023-05-11T02:53:43.144Z,7.20
2023-05-11T02:56:09.494Z,7.22
2023-05-11T02:58:35.940Z,6.97
2023-05-11T03:01:02.700Z,6.76
2023-05-11T03:03:29.233Z,6.81
2023-05-11T03:05:55.589Z,6.56
2023-05-11T03:08:21.913Z,6.54
2023-05-11T03:10:48.717Z,6.47
2023-05-11T03:13:16.544Z,6.56
2023-05-11T03:15:43.023Z,6.78
2023-05-11T03:18:09.910Z,6.86
2023-05-11T03:20:39.029Z,6.83
2023-05-11T03:23:06.551Z,6.81
2023-05-11T03:25:32.997Z,6.81
2023-05-11T03:28:07.244Z,6.93
2023-05-11T03:30:33.746Z,6.87
2023-05-11T03:33:00.246Z,6.91
2023-05-11T03:35:27.517Z,6.88
2023-05-11T03:37:56.333Z,6.94
2023-05-11T03:40:24.198Z,6.87
2023-05-11T03:42:53.383Z,7.01
2023-05-11T03:45:21.015Z,6.75
2023-05-11T03:47:48.766Z,6.84
2023-05-11T03:50:17.221Z,6.81
2023-05-11T03:52:43.863Z,6.77
2023-05-11T03:55:10.333Z,6.89
2023-05-11T03:57:36.727Z,6.78
2023-05-11T04:00:03.399Z,6.73
2023-05-11T04:02:29.909Z,6.68
2023-05-11T04:04:56.298Z,6.67
2023-05-11T04:07:22.645Z,6.79
2023-05-11T04:09:48.972Z,6.82
2023-05-11T04:12:17.306Z,6.88
2023-05-11T04:14:43.603Z,6.72
2023-05-11T04:17:10.149Z,6.50
2023-05-11T04:19:39.599Z,6.44
2023-05-11T04:22:05.938Z,6.75
2023-05-11T04:24:32.250Z,6.69
2023-05-11T04:27:04.002Z,6.89
2023-05-11T04:29:31.328Z,6.83
2023-05-11T04:31:58.704Z,6.69
2023-05-11T04:34:25.162Z,6.66
2023-05-11T04:36:51.555Z,6.59
2023-05-11T04:39:19.113Z,6.45
2023-05-11T04:41:45.574Z,6.48
2023-05-11T04:44:12.037Z,6.47
2023-05-11T04:46:38.653Z,6.64
2023-05-11T04:49:05.497Z,6.54
2023-05-11T04:51:34.898Z,6.46
2023-05-11T04:54:01.245Z,6.70
2023-05-11T04:56:27.572Z,6.84
2023-05-11T04:58:53.930Z,6.68
2023-05-11T05:01:20.318Z,6.85
2023-05-11T05:03:58.706Z,6.50
2023-05-11T05:06:25.060Z,6.57
2023-05-11T05:08:51.689Z,6.54
2023-05-11T05:11:18.068Z,6.87
2023-05-11T05:13:44.387Z,6.82
2023-05-11T05:16:10.709Z,6.60
2023-05-11T05:18:37.137Z,6.78
2023-05-11T05:21:03.525Z,6.90
2023-05-11T05:23:30.285Z,6.56
2023-05-11T05:25:56.620Z,6.75
2023-05-11T05:28:22.947Z,6.96
2023-05-11T05:30:53.438Z,7.02
2023-05-11T05:33:19.784Z,7.18
2023-05-11T05:35:48.188Z,7.05
2023-05-11T05:38:14.496Z,6.95
2023-05-11T05:40:40.822Z,6.89
2023-05-11T05:43:07.277Z,6.99
2023-05-11T05:45:33.621Z,6.81
2023-05-11T05:48:03.091Z,6.78
2023-05-11T05:50:29.589Z,6.91
2023-05-11T05:52:55.941Z,6.93
2023-05-11T05:55:22.454Z,7.32
2023-05-11T05:57:48.780Z,6.93
2023-05-11T06:00:16.621Z,7.03
2023-05-11T06:02:43.089Z,7.28
2023-05-11T06:05:09.731Z,7.37
2023-05-11T06:07:36.048Z,7.47
2023-05-11T06:10:02.739Z,7.36
2023-05-11T06:12:34.141Z,7.19
2023-05-11T06:15:00.553Z,7.64
2023-05-11T06:17:28.387Z,7.63
2023-05-11T06:19:54.841Z,7.62
2023-05-11T06:22:21.146Z,7.70
2023-05-11T06:24:47.466Z,7.56
2023-05-11T06:27:14.615Z,7.46
2023-05-11T06:29:46.665Z,7.44
2023-05-11T06:32:12.986Z,7.93
2023-05-11T06:34:39.496Z,8.03
2023-05-11T06:37:05.894Z,8.18
2023-05-11T06:39:35.026Z,8.30
2023-05-11T06:42:04.250Z,8.19
2023-05-11T06:44:32.296Z,8.21
2023-05-11T06:46:58.972Z,8.32
2023-05-11T06:49:25.390Z,8.45
2023-05-11T06:51:51.964Z,8.47
2023-05-11T06:54:19.282Z,8.40
2023-05-11T06:56:45.584Z,8.44
2023-05-11T06:59:11.900Z,8.41
2023-05-11T07:01:38.523Z,8.65
2023-05-11T07:04:05.113Z,8.51
2023-05-11T07:06:31.478Z,8.50
2023-05-11T07:08:57.852Z,8.57
2023-05-11T07:11:25.457Z,8.59
2023-05-11T07:13:51.864Z,8.50
2023-05-11T07:16:18.321Z,8.20
2023-05-11T07:18:44.673Z,8.13
2023-05-11T07:21:11.039Z,8.61
2023-05-11T07:23:37.355Z,8.57
2023-05-11T07:26:08.862Z,8.54
2023-05-11T07:28:35.817Z,8.61
2023-05-11T07:31:02.166Z,8.38
2023-05-11T07:33:28.585Z,8.28
2023-05-11T07:35:55.124Z,8.54
2023-05-11T07:38:21.538Z,8.51
2023-05-11T07:40:47.921Z,8.56
2023-05-11T07:43:14.244Z,8.27
2023-05-11T07:45:46.700Z,8.32
2023-05-11T07:48:13.096Z,8.02
2023-05-11T07:50:39.594Z,8.05
2023-05-11T07:53:06.035Z,8.22
2023-05-11T07:55:33.449Z,8.25
2023-05-11T07:57:59.854Z,8.32
2023-05-11T08:00:26.808Z,8.45
2023-05-11T08:02:53.538Z,8.57
2023-05-11T08:05:20.934Z,8.74
2023-05-11T08:07:47.557Z,8.81
2023-05-11T08:10:13.851Z,8.94
2023-05-11T08:12:40.163Z,8.79
2023-05-11T08:15:06.668Z,8.94
2023-05-11T08:17:33.058Z,8.83
2023-05-11T08:19:59.399Z,9.20
2023-05-11T08:22:25.736Z,9.05
2023-05-11T08:24:52.031Z,9.13
2023-05-11T08:27:18.577Z,9.40
2023-05-11T08:29:45.035Z,9.25
2023-05-11T08:32:11.466Z,9.22
2023-05-11T08:34:37.894Z,9.33
2023-05-11T08:37:04.403Z,9.43
2023-05-11T08:39:46.076Z,9.27
2023-05-11T08:42:15.386Z,9.37
2023-05-11T08:44:43.371Z,9.34
2023-05-11T08:47:22.628Z,9.39
2023-05-11T08:49:50.991Z,9.46
2023-05-11T08:52:18.234Z,9.50
2023-05-11T08:54:45.058Z,9.57
2023-05-11T08:57:12.449Z,9.71
2023-05-11T08:59:39.228Z,9.93
2023-05-11T09:02:06.277Z,10.11
2023-05-11T09:04:33.562Z,9.92
2023-05-11T09:07:00.138Z,9.79
2023-05-11T09:09:26.770Z,9.90
2023-05-11T09:11:54.114Z,10.16
2023-05-11T09:14:27.135Z,9.93
2023-05-11T09:16:54.040Z,10.14
2023-05-11T09:19:20.941Z,10.21
2023-05-11T09:21:47.464Z,10.44
2023-05-11T09:24:13.866Z,9.95
2023-05-11T09:26:40.308Z,10.11
2023-05-11T09:29:06.720Z,10.22
2023-05-11T09:31:37.312Z,10.47
2023-05-11T09:34:21.757Z,10.42
2023-05-11T09:36:52.219Z,10.76
2023-05-11T09:39:35.369Z,10.61
2023-05-11T09:42:13.741Z,10.75
2023-05-11T09:44:41.726Z,10.73
2023-05-11T09:47:15.214Z,10.38
2023-05-11T09:49:45.778Z,10.70
2023-05-11T09:52:12.934Z,10.69
2023-05-11T09:54:45.423Z,10.99
2023-05-11T09:57:28.213Z,10.94
2023-05-11T09:59:55.307Z,11.17
2023-05-11T10:02:26.119Z,11.26
2023-05-11T10:04:53.934Z,11.45
2023-05-11T10:07:27.826Z,11.61
2023-05-11T10:09:55.481Z,11.76
2023-05-11T10:12:25.772Z,11.35
2023-05-11T10:14:55.074Z,11.32
2023-05-11T10:17:21.884Z,11.81
2023-05-11T10:19:48.967Z,11.46
2023-05-11T10:22:16.471Z,11.22
2023-05-11T10:24:42.866Z,11.07
2023-05-11T10:27:10.163Z,11.07
2023-05-11T10:29:37.402Z,11.10
2023-05-11T10:32:04.610Z,11.01
2023-05-11T10:34:39.828Z,11.15
2023-05-11T10:37:06.556Z,11.20
2023-05-11T10:39:33.177Z,11.45
2023-05-11T10:42:06.966Z,10.83
2023-05-11T10:44:44.151Z,11.10
2023-05-11T10:47:29.342Z,10.95
2023-05-11T10:49:56.155Z,10.75
2023-05-11T10:52:35.060Z,10.85
2023-05-11T10:55:09.784Z,10.90
2023-05-11T10:57:44.987Z,11.18
2023-05-11T11:00:31.853Z,10.76
2023-05-11T11:03:08.444Z,10.77
2023-05-11T11:05:35.874Z,10.69
2023-05-11T11:08:05.846Z,10.57
2023-05-11T11:10:49.267Z,10.47
2023-05-11T11:13:19.888Z,10.47
2023-05-11T11:15:55.433Z,10.40
2023-05-11T11:18:24.981Z,10.44
2023-05-11T11:20:55.403Z,10.43
2023-05-11T11:23:40.339Z,10.65
2023-05-11T11:26:17.216Z,10.54
2023-05-11T11:29:01.909Z,10.67
2023-05-11T11:31:29.199Z,10.77
2023-05-11T11:33:58.905Z,10.70
2023-05-11T11:36:44.386Z,10.15
2023-05-11T11:39:10.723Z,10.95
2023-05-11T11:41:38.095Z,11.24
2023-05-11T11:44:04.695Z,11.09
2023-05-11T11:46:31.504Z,10.80
2023-05-11T11:49:08.441Z,10.90
2023-05-11T11:51:37.258Z,10.97
2023-05-11T11:54:04.306Z,10.83
2023-05-11T11:56:30.794Z,10.96
2023-05-11T11:58:58.433Z,11.03
2023-05-11T12:01:27.388Z,11.10
2023-05-11T12:04:09.554Z,11.29
2023-05-11T12:06:37.141Z,11.31
2023-05-11T12:09:04.911Z,11.54
2023-05-11T12:11:31.849Z,11.34
2023-05-11T12:13:59.210Z,11.56
2023-05-11T12:16:25.637Z,11.52
2023-05-11T12:18:54.209Z,11.45
2023-05-11T12:21:21.591Z,11.41
2023-05-11T12:23:55.006Z,11.72
2023-05-11T12:26:22.129Z,11.57
2023-05-11T12:28:50.360Z,11.84
2023-05-11T12:31:17.586Z,11.88
2023-05-11T12:33:51.138Z,11.89
2023-05-11T12:36:18.300Z,11.84
2023-05-11T12:38:48.497Z,12.03
2023-05-11T12:41:24.444Z,12.28
2023-05-11T12:43:51.288Z,12.45
2023-05-11T12:46:19.304Z,12.15
2023-05-11T12:48:46.437Z,12.00
2023-05-11T12:51:12.875Z,11.92
2023-05-11T12:53:39.855Z,12.14
2023-05-11T12:56:06.276Z,12.05
2023-05-11T12:58:36.681Z,11.85
2023-05-11T13:01:03.113Z,12.08
2023-05-11T13:03:34.102Z,12.15
2023-05-11T13:06:08.201Z,11.82
2023-05-11T13:08:37.040Z,11.77
2023-05-11T13:11:20.436Z,11.71
2023-05-11T13:13:47.183Z,11.83
2023-05-11T13:16:34.973Z,11.53
2023-05-11T13:19:02.780Z,11.36
2023-05-11T13:21:29.374Z,11.68
2023-05-11T13:23:56.087Z,11.46
2023-05-11T13:26:26.405Z,11.14
2023-05-11T13:29:08.786Z,11.07
2023-05-11T13:31:54.421Z,11.09
2023-05-11T13:34:36.793Z,10.90
2023-05-11T13:37:03.114Z,10.95
2023-05-11T13:39:30.601Z,10.94
2023-05-11T13:41:56.922Z,11.04
2023-05-11T13:44:23.348Z,10.80
2023-05-11T13:46:49.695Z,10.86
2023-05-11T13:49:18.116Z,10.89
2023-05-11T13:51:44.434Z,10.95
2023-05-11T13:54:10.909Z,11.12
2023-05-11T13:56:37.230Z,10.93
2023-05-11T13:59:03.586Z,11.46
2023-05-11T14:01:36.553Z,11.41
2023-05-11T14:04:02.941Z,11.71
2023-05-11T14:06:29.393Z,11.65
2023-05-11T14:08:55.758Z,11.81
2023-05-11T14:11:26.754Z,12.00
2023-05-11T14:13:53.050Z,11.68
2023-05-11T14:16:20.698Z,11.81
2023-05-11T14:18:47.491Z,11.72
2023-05-11T14:21:13.977Z,12.01
2023-05-11T14:23:44.969Z,12.24
2023-05-11T14:26:16.736Z,12.08
2023-05-11T14:28:43.130Z,12.13
2023-05-11T14:31:09.782Z,11.95
2023-05-11T14:33:36.561Z,11.67
2023-05-11T14:36:03.652Z,12.07
2023-05-11T14:38:30.054Z,11.88
2023-05-11T14:40:56.455Z,11.94
2023-05-11T14:43:24.205Z,11.98
2023-05-11T14:45:52.994Z,11.95
2023-05-11T14:48:19.312Z,12.32
2023-05-11T14:50:45.912Z,12.29
2023-05-11T14:53:12.649Z,12.12
2023-05-11T14:55:39.063Z,12.26
2023-05-11T14:58:09.052Z,12.27
2023-05-11T15:00:43.796Z,12.15
2023-05-11T15:03:10.800Z,12.01
2023-05-11T15:05:37.750Z,12.05
2023-05-11T15:08:04.101Z,11.97
2023-05-11T15:10:30.626Z,12.10
2023-05-11T15:12:57.031Z,12.27
2023-05-11T15:15:23.344Z,11.90
2023-05-11T15:17:49.668Z,11.75
2023-05-11T15:20:17.006Z,11.75
2023-05-11T15:22:44.371Z,11.65
2023-05-11T15:25:10.980Z,11.53
2023-05-11T15:27:44.485Z,11.53
2023-05-11T15:30:11.108Z,11.66
2023-05-11T15:32:41.098Z,11.87
2023-05-11T15:35:07.821Z,11.54
2023-05-11T15:37:36.276Z,11.63
2023-05-11T15:40:02.749Z,11.59
2023-05-11T15:42:29.162Z,11.76
2023-05-11T15:44:55.496Z,11.69
2023-05-11T15:47:21.895Z,11.65
2023-05-11T15:49:50.422Z,11.49
2023-05-11T15:52:17.819Z,11.28
2023-05-11T15:54:44.281Z,11.30
2023-05-11T15:57:11.673Z,11.23
2023-05-11T15:59:40.256Z,11.20
2023-05-11T16:02:07.624Z,11.32
2023-05-11T16:04:34.019Z,10.35
2023-05-11T16:07:00.344Z,10.94
2023-05-11T16:09:26.735Z,10.75
2023-05-11T16:11:53.052Z,10.73
2023-05-11T16:14:25.654Z,10.50
2023-05-11T16:16:52.122Z,10.51
2023-05-11T16:19:19.081Z,10.55
2023-05-11T16:21:45.400Z,10.51
2023-05-11T16:24:11.776Z,10.37
2023-05-11T16:26:38.176Z,10.24
2023-05-11T16:29:07.369Z,10.37
2023-05-11T16:31:34.894Z,10.38
2023-05-11T16:34:02.645Z,10.18
2023-05-11T16:36:29.514Z,10.30
2023-05-11T16:38:56.882Z,10.15
2023-05-11T16:41:25.267Z,10.16
2023-05-11T16:43:51.654Z,10.03
2023-05-11T16:46:27.690Z,9.98
2023-05-11T16:48:54.488Z,9.94
2023-05-11T16:51:21.710Z,10.04
2023-05-11T16:53:48.090Z,9.99
2023-05-11T16:56:16.747Z,10.17
2023-05-11T16:58:46.062Z,10.08
2023-05-11T17:01:12.611Z,10.20
2023-05-11T17:03:39.085Z,10.12
2023-05-11T17:06:05.689Z,10.06
2023-05-11T17:08:33.177Z,10.07
2023-05-11T17:10:59.536Z,10.19
2023-05-11T17:13:26.725Z,10.24
2023-05-11T17:15:56.117Z,10.20
2023-05-11T17:18:24.838Z,10.09
2023-05-11T17:20:55.952Z,10.12
2023-05-11T17:23:23.055Z,10.09
2023-05-11T17:25:49.424Z,10.20
2023-05-11T17:28:16.122Z,10.09
2023-05-11T17:30:48.648Z,10.05
2023-05-11T17:33:15.995Z,10.01
2023-05-11T17:35:42.872Z,9.95
2023-05-11T17:38:09.240Z,9.94
2023-05-11T17:40:35.702Z,9.95
2023-05-11T17:43:02.113Z,9.93
2023-05-11T17:45:33.948Z,9.95
2023-05-11T17:48:00.395Z,9.91
2023-05-11T17:50:26.859Z,9.87
2023-05-11T17:52:53.176Z,9.87
2023-05-11T17:55:19.694Z,9.87
2023-05-11T17:57:47.033Z,9.86
2023-05-11T18:00:13.584Z,9.80
2023-05-11T18:02:41.163Z,9.78
2023-05-11T18:05:07.695Z,9.76
2023-05-11T18:07:34.026Z,9.75
2023-05-11T18:10:00.371Z,9.70
2023-05-11T18:12:26.995Z,9.71
2023-05-11T18:14:53.409Z,9.75
2023-05-11T18:17:19.749Z,9.75
2023-05-11T18:19:46.058Z,9.75
2023-05-11T18:22:12.357Z,9.70
2023-05-11T18:24:38.654Z,9.66
2023-05-11T18:27:05.083Z,9.74
2023-05-11T18:29:31.442Z,9.67
2023-05-11T18:31:57.991Z,9.61
2023-05-11T18:34:24.465Z,9.61
2023-05-11T18:36:50.811Z,9.60
2023-05-11T18:39:17.135Z,9.55
2023-05-11T18:41:43.586Z,9.49
2023-05-11T18:44:09.921Z,9.55
2023-05-11T18:46:36.230Z,9.62
2023-05-11T18:49:02.659Z,9.61
2023-05-11T18:51:29.327Z,9.81
2023-05-11T18:53:55.690Z,9.51
2023-05-11T18:56:22.413Z,9.39
2023-05-11T18:58:50.276Z,9.32
2023-05-11T19:01:17.999Z,9.25
2023-05-11T19:03:44.581Z,9.22
2023-05-11T19:06:11.843Z,9.15
2023-05-11T19:08:38.183Z,9.11
2023-05-11T19:11:08.271Z,9.11
2023-05-11T19:13:34.771Z,9.09
2023-05-11T19:16:01.335Z,9.05
2023-05-11T19:18:28.008Z,9.01
2023-05-11T19:20:54.405Z,8.95
2023-05-11T19:23:27.888Z,8.93
2023-05-11T19:25:54.421Z,8.92
2023-05-11T19:28:21.844Z,8.84
2023-05-11T19:30:48.157Z,8.78
2023-05-11T19:33:14.840Z,8.72
2023-05-11T19:35:41.391Z,8.78
2023-05-11T19:38:07.737Z,8.68
2023-05-11T19:43:05.575Z,8.53
2023-05-11T19:45:33.190Z,8.48
2023-05-11T19:48:00.157Z,8.40
2023-05-11T19:50:26.731Z,8.33
2023-05-11T19:52:53.253Z,8.20
2023-05-11T19:55:19.591Z,8.14
2023-05-11T19:57:48.013Z,8.06
2023-05-11T20:00:18.063Z,7.93
2023-05-11T20:02:51.232Z,7.95
2023-05-11T20:05:17.629Z,7.96
2023-05-11T20:07:44.027Z,7.88
2023-05-11T20:10:10.464Z,7.73
2023-05-11T20:12:38.106Z,7.73
2023-05-11T20:15:05.684Z,7.68
2023-05-11T20:17:32.075Z,7.56
2023-05-11T20:19:58.472Z,7.47
2023-05-11T20:22:24.806Z,7.41
2023-05-11T20:24:52.219Z,7.35
2023-05-11T20:27:18.559Z,7.31
2023-05-11T20:29:46.627Z,7.32
2023-05-11T20:32:12.961Z,7.31
2023-05-11T20:34:39.364Z,7.42
2023-05-11T20:37:05.737Z,7.41
2023-05-11T20:39:34.115Z,7.44
2023-05-11T20:42:00.483Z,7.36
2023-05-11T20:44:26.977Z,7.28
2023-05-11T20:46:53.407Z,7.25
2023-05-11T20:49:34.644Z,7.35
2023-05-11T20:52:05.114Z,7.30
2023-05-11T20:54:33.702Z,7.30
2023-05-11T20:57:01.374Z,7.28
2023-05-11T21:01:57.674Z,7.39
2023-05-11T21:04:24.091Z,7.44
2023-05-11T21:06:50.494Z,7.50
2023-05-11T21:09:16.840Z,7.48
2023-05-11T21:11:43.567Z,7.42
2023-05-11T21:14:09.902Z,7.40
2023-05-11T21:16:36.238Z,7.39
2023-05-11T21:19:02.697Z,7.43
2023-05-11T21:21:29.247Z,7.53
2023-05-11T21:23:55.570Z,7.50
2023-05-11T21:26:22.131Z,7.55
2023-05-11T21:28:48.455Z,7.58
2023-05-11T21:31:14.797Z,7.47
2023-05-11T21:33:41.257Z,7.57
2023-05-11T21:36:08.389Z,7.67
2023-05-11T21:38:34.959Z,7.67
2023-05-11T21:41:01.280Z,7.65
2023-05-11T21:43:28.785Z,7.60
2023-05-11T21:45:55.106Z,7.49
2023-05-11T21:48:21.592Z,7.91
2023-05-11T21:50:51.871Z,7.64
2023-05-11T21:53:18.180Z,7.55
2023-05-11T21:55:44.505Z,7.74
2023-05-11T21:58:14.037Z,7.62
2023-05-11T22:00:40.353Z,7.57
2023-05-11T22:03:06.841Z,7.61
2023-05-11T22:05:33.185Z,7.64
2023-05-11T22:08:13.267Z,7.57
2023-05-11T22:10:41.020Z,7.72
2023-05-11T22:13:07.413Z,7.54
2023-05-11T22:15:33.755Z,7.49
2023-05-11T22:18:00.118Z,7.50
2023-05-11T22:20:26.526Z,7.27
2023-05-11T22:22:52.831Z,7.44
2023-05-11T22:25:19.192Z,7.45
2023-05-11T22:27:45.844Z,7.43
2023-05-11T22:30:12.344Z,7.37
2023-05-11T22:32:40.770Z,7.41
2023-05-11T22:35:07.360Z,7.47
2023-05-11T22:37:33.962Z,7.52
2023-05-11T22:40:00.298Z,7.58
2023-05-11T22:42:27.066Z,7.60
2023-05-11T22:44:53.448Z,7.54
2023-05-11T22:47:19.868Z,7.40
2023-05-11T22:49:46.194Z,7.35
2023-05-11T22:52:12.655Z,7.34
2023-05-11T22:54:40.045Z,7.33
2023-05-11T22:57:06.404Z,7.31
2023-05-11T22:59:34.597Z,7.28
2023-05-11T23:02:03.086Z,7.29
2023-05-11T23:04:29.773Z,7.42
2023-05-11T23:06:56.076Z,7.41
2023-05-11T23:09:22.369Z,7.33
2023-05-11T23:11:48.797Z,7.31
2023-05-11T23:14:15.264Z,7.20
2023-05-11T23:16:42.250Z,7.10
2023-05-11T23:19:08.597Z,7.05
2023-05-11T23:21:34.908Z,7.17
2023-05-11T23:24:01.202Z,7.14
2023-05-11T23:26:27.498Z,6.97
2023-05-11T23:28:58.997Z,6.85
2023-05-11T23:31:27.654Z,6.80
2023-05-11T23:33:54.147Z,6.76
2023-05-11T23:36:20.449Z,6.69
2023-05-11T23:38:46.773Z,6.66
2023-05-11T23:41:13.086Z,6.59
2023-05-11T23:43:39.397Z,6.63
2023-05-11T23:46:05.687Z,6.65
2023-05-11T23:48:32.023Z,6.60
2023-05-11T23:50:58.347Z,6.54
2023-05-11T23:53:24.669Z,6.47
2023-05-11T23:55:51.053Z,6.44
2023-05-11T23:58:17.375Z,6.42
